createdAt,value
2018-10-17T00:01:17.346Z,15.50
2018-10-17T00:03:45.649Z,15.50
2018-10-17T00:06:14.081Z,15.50
2018-10-17T00:08:42.677Z,15.50
2018-10-17T00:11:11.166Z,15.50
2018-10-17T00:13:39.523Z,15.40
2018-10-17T00:16:07.978Z,15.20
2018-10-17T00:18:36.454Z,15.20
2018-10-17T00:21:05.342Z,15.20
2018-10-17T00:23:34.085Z,15.20
2018-10-17T00:26:03.191Z,15.10
2018-10-17T00:28:31.601Z,15.00
2018-10-17T00:31:00.040Z,15.20
2018-10-17T00:33:28.437Z,15.20
2018-10-17T00:35:56.882Z,15.20
2018-10-17T00:38:25.338Z,15.10
2018-10-17T00:40:53.780Z,15.00
2018-10-17T00:43:22.190Z,15.00
2018-10-17T00:45:50.619Z,14.90
2018-10-17T00:48:19.075Z,14.90
2018-10-17T00:50:47.518Z,14.90
2018-10-17T00:53:16.019Z,14.90
2018-10-17T00:55:44.329Z,14.90
2018-10-17T00:58:12.704Z,14.90
2018-10-17T01:00:41.136Z,15.00
2018-10-17T01:03:09.574Z,14.90
2018-10-17T01:05:37.974Z,15.00
2018-10-17T01:08:06.434Z,15.00
2018-10-17T01:10:34.810Z,15.00
2018-10-17T01:13:03.240Z,15.00
2018-10-17T01:15:31.638Z,14.90
2018-10-17T01:18:00.064Z,14.90
2018-10-17T01:20:28.455Z,14.80
2018-10-17T01:22:56.928Z,14.80
2018-10-17T01:25:25.305Z,14.90
2018-10-17T01:27:53.718Z,14.80
2018-10-17T01:30:22.211Z,14.90
2018-10-17T01:32:50.610Z,14.80
2018-10-17T01:35:19.017Z,14.80
2018-10-17T01:37:47.613Z,14.70
2018-10-17T01:40:15.993Z,14.60
2018-10-17T01:42:44.398Z,14.60
2018-10-17T01:45:12.785Z,14.40
2018-10-17T01:47:41.366Z,14.40
2018-10-17T01:50:09.900Z,14.40
2018-10-17T01:52:38.439Z,14.20
2018-10-17T01:55:07.355Z,14.20
2018-10-17T01:57:43.487Z,14.00
2018-10-17T02:00:11.856Z,14.00
2018-10-17T02:02:40.246Z,14.00
2018-10-17T02:05:08.700Z,13.80
2018-10-17T02:07:37.045Z,13.70
2018-10-17T02:10:05.623Z,13.70
2018-10-17T02:12:33.978Z,13.60
2018-10-17T02:15:02.343Z,13.70
2018-10-17T02:17:30.711Z,13.70
2018-10-17T02:19:59.192Z,13.70
2018-10-17T02:22:27.578Z,13.70
2018-10-17T02:24:55.977Z,13.70
2018-10-17T02:27:24.423Z,13.70
2018-10-17T02:29:52.832Z,13.80
2018-10-17T02:32:21.179Z,13.70
2018-10-17T02:34:54.944Z,13.70
2018-10-17T02:37:23.306Z,13.60
2018-10-17T02:39:51.667Z,13.60
2018-10-17T02:42:20.029Z,13.40
2018-10-17T02:44:49.241Z,13.50
2018-10-17T02:47:17.606Z,13.50
2018-10-17T02:49:45.964Z,13.50
2018-10-17T02:52:14.328Z,13.50
2018-10-17T02:54:42.911Z,13.70
2018-10-17T02:57:11.278Z,13.70
2018-10-17T02:59:39.692Z,13.60
2018-10-17T03:02:08.070Z,13.50
2018-10-17T03:04:36.459Z,13.50
2018-10-17T03:07:04.863Z,13.50
2018-10-17T03:09:33.387Z,13.40
2018-10-17T03:12:01.967Z,13.50
2018-10-17T03:14:30.378Z,13.60
2018-10-17T03:16:58.790Z,13.50
2018-10-17T03:19:27.160Z,13.50
2018-10-17T03:21:55.553Z,13.50
2018-10-17T03:24:23.932Z,13.40
2018-10-17T03:26:52.401Z,13.70
2018-10-17T03:29:20.813Z,13.80
2018-10-17T03:31:49.182Z,13.70
2018-10-17T03:34:17.584Z,13.70
2018-10-17T03:36:45.966Z,13.60
2018-10-17T03:39:14.363Z,13.60
2018-10-17T03:41:42.732Z,13.60
2018-10-17T03:44:11.120Z,13.60
2018-10-17T03:46:39.502Z,13.60
2018-10-17T03:49:08.553Z,13.50
2018-10-17T03:51:36.815Z,13.50
2018-10-17T03:54:05.480Z,13.40
2018-10-17T03:56:33.913Z,13.50
2018-10-17T03:59:02.413Z,13.50
2018-10-17T04:01:30.670Z,13.40
2018-10-17T04:03:59.180Z,13.30
2018-10-17T04:06:27.569Z,13.30
2018-10-17T04:08:55.965Z,13.20
2018-10-17T04:11:24.322Z,13.20
2018-10-17T04:13:52.787Z,13.20
2018-10-17T04:16:21.127Z,13.20
2018-10-17T04:18:49.511Z,13.20
2018-10-17T04:21:17.855Z,13.10
2018-10-17T04:23:46.502Z,13.00
2018-10-17T04:26:14.827Z,13.10
2018-10-17T04:28:43.210Z,13.10
2018-10-17T04:31:11.673Z,13.00
2018-10-17T04:33:40.034Z,13.10
2018-10-17T04:36:08.397Z,12.90
2018-10-17T04:38:36.726Z,13.00
2018-10-17T04:41:05.261Z,13.00
2018-10-17T04:43:33.579Z,12.90
2018-10-17T04:46:01.948Z,12.90
2018-10-17T04:48:30.367Z,13.20
2018-10-17T04:50:58.798Z,13.30
2018-10-17T04:53:27.195Z,13.20
2018-10-17T04:55:56.088Z,13.20
2018-10-17T04:58:24.514Z,13.10
2018-10-17T05:00:53.171Z,13.10
2018-10-17T05:03:21.491Z,13.00
2018-10-17T05:05:49.867Z,13.10
2018-10-17T05:08:18.226Z,13.10
2018-10-17T05:10:46.575Z,13.20
2018-10-17T05:13:15.193Z,13.20
2018-10-17T05:15:44.202Z,13.10
2018-10-17T05:18:12.549Z,13.10
2018-10-17T05:20:40.931Z,13.00
2018-10-17T05:23:09.401Z,12.90
2018-10-17T05:25:37.778Z,12.80
2018-10-17T05:28:06.278Z,12.80
2018-10-17T05:30:35.682Z,12.80
2018-10-17T05:33:04.661Z,12.80
2018-10-17T05:35:33.055Z,12.90
2018-10-17T05:38:01.502Z,13.00
2018-10-17T05:40:29.834Z,13.10
2018-10-17T05:42:58.325Z,13.30
2018-10-17T05:45:26.783Z,13.40
2018-10-17T05:47:56.159Z,13.50
2018-10-17T05:50:25.333Z,13.30
2018-10-17T05:52:54.032Z,13.30
2018-10-17T05:55:22.870Z,13.40
2018-10-17T05:57:51.952Z,13.60
2018-10-17T06:00:21.239Z,13.50
2018-10-17T06:02:50.570Z,13.30
2018-10-17T06:05:20.092Z,13.30
2018-10-17T06:07:50.029Z,13.30
2018-10-17T06:10:19.364Z,13.30
2018-10-17T06:12:47.941Z,13.30
2018-10-17T06:15:16.667Z,13.20
2018-10-17T06:17:45.083Z,13.20
2018-10-17T06:20:13.716Z,13.20
2018-10-17T06:22:42.922Z,13.20
2018-10-17T06:25:11.466Z,13.10
2018-10-17T06:27:39.878Z,13.10
2018-10-17T06:30:09.591Z,13.10
2018-10-17T06:32:38.024Z,13.10
2018-10-17T06:35:06.936Z,13.10
2018-10-17T06:37:35.671Z,13.10
2018-10-17T06:40:04.466Z,13.10
2018-10-17T06:42:32.846Z,13.00
2018-10-17T06:45:01.614Z,13.10
2018-10-17T06:47:30.031Z,13.20
2018-10-17T06:49:58.431Z,13.00
2018-10-17T06:52:27.082Z,12.90
2018-10-17T06:54:56.209Z,12.90
2018-10-17T06:57:24.782Z,12.90
2018-10-17T06:59:53.218Z,13.00
2018-10-17T07:02:21.743Z,13.20
2018-10-17T07:04:50.263Z,13.20
2018-10-17T07:07:18.806Z,13.30
2018-10-17T07:09:47.181Z,13.50
2018-10-17T07:12:15.994Z,13.90
2018-10-17T07:14:44.422Z,14.20
2018-10-17T07:17:13.341Z,14.30
2018-10-17T07:19:43.588Z,14.50
2018-10-17T07:22:13.208Z,14.50
2018-10-17T07:24:43.671Z,14.50
2018-10-17T07:27:12.111Z,14.60
2018-10-17T07:29:40.718Z,14.80
2018-10-17T07:32:09.075Z,14.90
2018-10-17T07:34:37.491Z,14.80
2018-10-17T07:37:06.358Z,14.80
2018-10-17T07:39:34.746Z,15.00
2018-10-17T07:42:04.285Z,15.20
2018-10-17T07:44:32.626Z,15.40
2018-10-17T07:47:01.089Z,15.30
2018-10-17T07:49:29.442Z,15.20
2018-10-17T07:51:57.878Z,15.30
2018-10-17T07:54:26.240Z,15.30
2018-10-17T07:56:54.747Z,15.40
2018-10-17T07:59:23.224Z,15.50
2018-10-17T08:01:51.599Z,15.60
2018-10-17T08:04:19.942Z,15.60
2018-10-17T08:06:48.460Z,15.80
2018-10-17T08:09:16.852Z,15.80
2018-10-17T08:11:45.227Z,15.90
2018-10-17T08:14:13.595Z,15.90
2018-10-17T08:16:42.031Z,15.90
2018-10-17T08:19:11.492Z,16.00
2018-10-17T08:21:39.894Z,16.10
2018-10-17T08:24:08.302Z,16.20
2018-10-17T08:26:36.706Z,16.50
2018-10-17T08:29:05.120Z,16.50
2018-10-17T08:31:33.500Z,16.70
2018-10-17T08:34:01.912Z,17.00
2018-10-17T08:36:30.631Z,17.10
2018-10-17T08:38:58.794Z,17.00
2018-10-17T08:41:27.252Z,16.90
2018-10-17T08:43:55.737Z,16.90
2018-10-17T08:46:24.183Z,16.90
2018-10-17T08:48:52.613Z,17.10
2018-10-17T08:51:21.066Z,16.90
2018-10-17T08:53:49.519Z,16.70
2018-10-17T08:56:18.316Z,16.90
2018-10-17T08:58:46.634Z,17.00
2018-10-17T09:01:15.054Z,17.00
2018-10-17T09:03:43.463Z,17.00
2018-10-17T09:06:11.899Z,17.10
2018-10-17T09:08:40.218Z,17.20
2018-10-17T09:11:08.598Z,17.30
2018-10-17T09:13:37.054Z,17.20
2018-10-17T09:16:06.583Z,17.40
2018-10-17T09:18:34.939Z,17.50
2018-10-17T09:21:03.872Z,17.60
2018-10-17T09:23:32.006Z,17.60
2018-10-17T09:26:00.460Z,17.80
2018-10-17T09:28:28.822Z,17.80
2018-10-17T09:30:57.240Z,18.10
2018-10-17T09:33:25.643Z,18.30
2018-10-17T09:35:54.062Z,18.20
2018-10-17T09:38:22.421Z,18.10
2018-10-17T09:40:50.800Z,18.20
2018-10-17T09:43:19.175Z,18.60
2018-10-17T09:45:47.551Z,18.50
2018-10-17T09:48:16.142Z,18.50
2018-10-17T09:50:44.423Z,18.60
2018-10-17T09:53:12.912Z,18.90
2018-10-17T09:55:41.463Z,19.30
2018-10-17T09:58:10.409Z,19.30
2018-10-17T10:00:44.261Z,19.20
2018-10-17T10:03:12.698Z,19.20
2018-10-17T10:05:41.239Z,19.10
2018-10-17T10:08:09.823Z,19.30
2018-10-17T10:10:38.251Z,19.20
2018-10-17T10:13:06.697Z,19.10
2018-10-17T10:15:35.130Z,19.30
2018-10-17T10:18:03.532Z,19.30
2018-10-17T10:20:31.929Z,19.60
2018-10-17T10:23:00.673Z,19.60
2018-10-17T10:25:29.106Z,19.60
2018-10-17T10:27:57.551Z,19.70
2018-10-17T10:30:25.965Z,19.70
2018-10-17T10:32:54.387Z,19.50
2018-10-17T10:35:22.870Z,19.50
2018-10-17T10:37:52.427Z,19.80
2018-10-17T10:40:20.831Z,20.00
2018-10-17T10:42:49.278Z,20.20
2018-10-17T10:45:17.800Z,20.20
2018-10-17T10:47:46.126Z,20.60
2018-10-17T10:50:14.636Z,20.90
2018-10-17T10:52:43.052Z,21.10
2018-10-17T10:55:11.478Z,20.80
2018-10-17T10:57:40.203Z,20.70
2018-10-17T11:00:08.750Z,20.90
2018-10-17T11:02:37.105Z,21.00
2018-10-17T11:05:05.759Z,21.00
2018-10-17T11:07:34.151Z,21.10
2018-10-17T11:10:02.618Z,21.00
2018-10-17T11:12:31.064Z,20.80
2018-10-17T11:14:59.605Z,21.00
2018-10-17T11:17:27.881Z,21.00
2018-10-17T11:19:56.292Z,21.00
2018-10-17T11:22:24.679Z,20.90
2018-10-17T11:24:53.114Z,21.00
2018-10-17T11:27:21.559Z,21.00
2018-10-17T11:29:49.959Z,20.90
2018-10-17T11:32:18.374Z,21.00
2018-10-17T11:34:46.783Z,21.00
2018-10-17T11:37:15.273Z,20.90
2018-10-17T11:39:43.661Z,21.40
2018-10-17T11:42:12.115Z,21.50
2018-10-17T11:44:40.482Z,21.50
2018-10-17T11:47:09.245Z,21.70
2018-10-17T11:49:37.551Z,21.80
2018-10-17T11:52:06.072Z,21.80
2018-10-17T11:54:34.446Z,21.90
2018-10-17T11:57:03.025Z,22.30
2018-10-17T11:59:31.391Z,21.90
2018-10-17T12:01:59.810Z,22.30
2018-10-17T12:04:28.433Z,22.40
2018-10-17T12:06:56.555Z,22.20
2018-10-17T12:09:24.995Z,22.50
2018-10-17T12:11:53.478Z,22.70
2018-10-17T12:14:21.876Z,23.10
2018-10-17T12:16:50.258Z,23.50
2018-10-17T12:19:18.943Z,23.40
2018-10-17T12:21:47.343Z,23.50
2018-10-17T12:24:16.065Z,23.60
2018-10-17T12:26:44.271Z,23.60
2018-10-17T12:29:12.706Z,23.30
2018-10-17T12:31:41.095Z,23.10
2018-10-17T12:34:09.475Z,23.50
2018-10-17T12:36:37.863Z,24.00
2018-10-17T12:39:09.359Z,24.00
2018-10-17T12:41:37.753Z,24.70
2018-10-17T12:44:06.233Z,24.20
2018-10-17T12:46:34.611Z,24.20
2018-10-17T12:49:03.020Z,24.20
2018-10-17T12:51:31.527Z,24.20
2018-10-17T12:53:59.923Z,24.30
2018-10-17T12:56:28.290Z,24.50
2018-10-17T12:58:56.699Z,24.50
2018-10-17T13:01:25.097Z,24.90
2018-10-17T13:03:53.466Z,25.00
2018-10-17T13:06:21.835Z,25.20
2018-10-17T13:08:50.222Z,25.50
2018-10-17T13:11:18.590Z,25.20
2018-10-17T13:13:46.967Z,25.50
2018-10-17T13:16:15.331Z,25.20
2018-10-17T13:18:43.721Z,24.90
2018-10-17T13:21:12.463Z,25.30
2018-10-17T13:23:41.873Z,24.80
2018-10-17T13:26:10.263Z,24.80
2018-10-17T13:28:38.831Z,25.10
2018-10-17T13:31:07.222Z,24.90
2018-10-17T13:33:35.622Z,24.60
2018-10-17T13:36:04.032Z,24.90
2018-10-17T13:38:32.479Z,24.80
2018-10-17T13:41:00.851Z,25.20
2018-10-17T13:43:29.274Z,25.10
2018-10-17T13:45:57.743Z,25.10
2018-10-17T13:48:26.129Z,24.70
2018-10-17T13:50:54.625Z,24.70
2018-10-17T13:53:23.043Z,24.80
2018-10-17T13:55:51.577Z,25.00
2018-10-17T13:58:20.114Z,24.90
2018-10-17T14:00:48.496Z,24.80
2018-10-17T14:03:16.897Z,24.50
2018-10-17T14:05:45.534Z,24.30
2018-10-17T14:08:14.566Z,24.40
2018-10-17T14:10:43.007Z,24.60
2018-10-17T14:13:11.460Z,24.90
2018-10-17T14:15:39.816Z,25.20
2018-10-17T14:20:54.089Z,24.60
2018-10-17T14:23:23.294Z,24.80
2018-10-17T14:25:51.623Z,25.50
2018-10-17T14:28:20.053Z,25.80
2018-10-17T14:30:48.487Z,25.90
2018-10-17T14:33:16.954Z,26.20
2018-10-17T14:35:45.347Z,26.20
2018-10-17T14:38:13.784Z,26.10
2018-10-17T14:40:42.195Z,26.00
2018-10-17T14:43:10.641Z,26.10
2018-10-17T14:45:39.078Z,26.40
2018-10-17T14:48:07.809Z,26.10
2018-10-17T14:50:36.186Z,26.40
2018-10-17T14:53:04.749Z,26.80
2018-10-17T14:55:33.287Z,26.30
2018-10-17T14:58:01.661Z,26.40
2018-10-17T15:00:30.054Z,25.50
2018-10-17T15:02:58.516Z,25.40
2018-10-17T15:05:26.868Z,25.30
2018-10-17T15:07:55.312Z,25.00
2018-10-17T15:10:23.909Z,25.70
2018-10-17T15:12:52.275Z,25.80
2018-10-17T15:15:20.827Z,25.50
2018-10-17T15:17:49.361Z,25.50
2018-10-17T15:20:17.925Z,24.80
2018-10-17T15:22:46.335Z,24.50
2018-10-17T15:25:14.755Z,24.40
2018-10-17T15:27:43.138Z,24.70
2018-10-17T15:30:11.747Z,25.00
2018-10-17T15:32:40.090Z,24.90
2018-10-17T15:35:09.102Z,25.10
2018-10-17T15:37:37.629Z,25.10
2018-10-17T15:40:06.168Z,25.00
2018-10-17T15:42:34.623Z,24.60
2018-10-17T15:45:03.130Z,24.60
2018-10-17T15:47:31.547Z,24.40
2018-10-17T15:50:00.022Z,24.40
2018-10-17T15:52:28.517Z,24.10
2018-10-17T15:54:57.021Z,23.60
2018-10-17T15:57:25.423Z,23.10
2018-10-17T15:59:53.899Z,22.70
2018-10-17T16:02:22.378Z,22.40
2018-10-17T16:04:50.754Z,22.30
2018-10-17T16:07:19.191Z,22.00
2018-10-17T16:09:48.265Z,21.90
2018-10-17T16:12:16.767Z,21.80
2018-10-17T16:14:45.167Z,21.60
2018-10-17T16:17:13.648Z,21.60
2018-10-17T16:19:42.011Z,21.40
2018-10-17T16:22:10.612Z,21.30
2018-10-17T16:24:39.023Z,21.10
2018-10-17T16:27:07.455Z,21.00
2018-10-17T16:29:35.915Z,20.90
2018-10-17T16:32:04.621Z,20.80
2018-10-17T16:34:33.072Z,20.70
2018-10-17T16:37:01.690Z,20.60
2018-10-17T16:39:30.087Z,20.60
2018-10-17T16:41:58.524Z,20.50
2018-10-17T16:44:26.961Z,20.50
2018-10-17T16:46:56.022Z,20.40
2018-10-17T16:49:24.776Z,20.40
2018-10-17T16:51:53.183Z,20.40
2018-10-17T16:54:21.571Z,20.30
2018-10-17T16:56:50.638Z,20.30
2018-10-17T16:59:19.021Z,20.20
2018-10-17T17:01:50.426Z,20.20
2018-10-17T17:04:18.841Z,20.10
2018-10-17T17:06:47.231Z,20.10
2018-10-17T17:09:15.743Z,20.00
2018-10-17T17:11:44.129Z,20.00
2018-10-17T17:14:12.504Z,20.00
2018-10-17T17:16:40.991Z,20.00
2018-10-17T17:19:09.547Z,20.00
2018-10-17T17:21:37.960Z,19.90
2018-10-17T17:24:06.428Z,19.90
2018-10-17T17:26:34.879Z,19.80
2018-10-17T17:29:06.121Z,19.80
2018-10-17T17:31:34.518Z,19.80
2018-10-17T17:34:02.961Z,19.80
2018-10-17T17:36:31.680Z,19.70
2018-10-17T17:38:59.980Z,19.60
2018-10-17T17:41:28.406Z,19.60
2018-10-17T17:43:57.016Z,19.60
2018-10-17T17:46:25.572Z,19.60
2018-10-17T17:48:53.993Z,19.60
2018-10-17T17:51:22.473Z,19.60
2018-10-17T17:53:50.984Z,19.50
2018-10-17T17:56:19.407Z,19.40
2018-10-17T17:58:47.869Z,19.40
2018-10-17T18:01:16.338Z,19.30
2018-10-17T18:03:44.788Z,19.30
2018-10-17T18:06:13.199Z,19.20
2018-10-17T18:08:41.608Z,19.20
2018-10-17T18:11:20.849Z,19.20
2018-10-17T18:13:49.945Z,19.10
2018-10-17T18:16:18.425Z,19.20
2018-10-17T18:18:46.879Z,19.10
2018-10-17T18:21:15.620Z,19.10
2018-10-17T18:23:44.414Z,19.00
2018-10-17T18:26:13.143Z,18.90
2018-10-17T18:28:42.162Z,18.90
2018-10-17T18:31:10.849Z,18.80
2018-10-17T18:33:39.341Z,18.70
2018-10-17T18:36:07.804Z,18.50
2018-10-17T18:38:36.323Z,18.50
2018-10-17T18:41:04.811Z,18.40
2018-10-17T18:43:33.242Z,18.30
2018-10-17T18:46:01.687Z,18.40
2018-10-17T18:48:30.129Z,18.20
2018-10-17T18:50:58.543Z,18.20
2018-10-17T18:53:27.104Z,18.20
2018-10-17T18:55:55.529Z,18.10
2018-10-17T18:58:24.167Z,18.20
2018-10-17T19:00:52.567Z,18.30
2018-10-17T19:03:20.954Z,18.20
2018-10-17T19:05:49.411Z,18.20
2018-10-17T19:08:17.884Z,18.20
2018-10-17T19:10:46.288Z,18.20
2018-10-17T19:13:14.697Z,18.20
2018-10-17T19:15:43.706Z,18.20
2018-10-17T19:18:12.109Z,18.10
2018-10-17T19:20:40.534Z,18.10
2018-10-17T19:23:08.929Z,18.20
2018-10-17T19:25:37.372Z,18.10
2018-10-17T19:28:07.079Z,18.10
2018-10-17T19:30:35.488Z,18.20
2018-10-17T19:33:04.007Z,18.20
2018-10-17T19:35:32.452Z,18.20
2018-10-17T19:38:00.997Z,18.10
2018-10-17T19:40:29.450Z,18.10
2018-10-17T19:42:57.913Z,18.00
2018-10-17T19:45:26.385Z,18.00
2018-10-17T19:47:54.895Z,18.00
2018-10-17T19:50:23.238Z,17.90
2018-10-17T19:52:51.683Z,17.90
2018-10-17T19:55:20.160Z,17.90
2018-10-17T19:57:48.588Z,17.90
2018-10-17T20:00:17.073Z,17.80
2018-10-17T20:02:45.514Z,17.80
2018-10-17T20:05:13.984Z,17.80
2018-10-17T20:07:42.428Z,17.70
2018-10-17T20:10:10.837Z,17.70
2018-10-17T20:12:39.279Z,17.70
2018-10-17T20:15:07.961Z,17.70
2018-10-17T20:17:36.322Z,17.60
2018-10-17T20:20:05.548Z,17.50
2018-10-17T20:22:34.047Z,17.50
2018-10-17T20:25:02.991Z,17.40
2018-10-17T20:27:31.435Z,17.40
2018-10-17T20:29:59.965Z,17.30
2018-10-17T20:32:28.444Z,17.20
2018-10-17T20:34:56.855Z,17.20
2018-10-17T20:37:25.310Z,17.20
2018-10-17T20:39:53.726Z,17.30
2018-10-17T20:42:22.266Z,17.20
2018-10-17T20:44:50.732Z,17.20
2018-10-17T20:47:19.260Z,17.20
2018-10-17T20:49:47.824Z,17.10
2018-10-17T20:52:16.507Z,17.00
2018-10-17T20:54:45.055Z,17.00
2018-10-17T20:57:13.698Z,17.00
2018-10-17T20:59:42.329Z,17.00
2018-10-17T21:02:10.868Z,16.90
2018-10-17T21:04:39.816Z,16.90
2018-10-17T21:07:09.011Z,17.00
2018-10-17T21:09:37.451Z,16.90
2018-10-17T21:12:06.003Z,16.90
2018-10-17T21:14:34.571Z,16.90
2018-10-17T21:17:02.999Z,16.90
2018-10-17T21:19:31.531Z,16.90
2018-10-17T21:22:00.166Z,16.70
2018-10-17T21:24:28.844Z,16.60
2018-10-17T21:26:57.628Z,16.70
2018-10-17T21:29:26.083Z,16.60
2018-10-17T21:31:54.613Z,16.60
2018-10-17T21:34:23.151Z,16.60
2018-10-17T21:36:52.111Z,16.50
2018-10-17T21:39:20.587Z,16.40
2018-10-17T21:41:49.104Z,16.50
2018-10-17T21:44:17.680Z,16.50
2018-10-17T21:46:46.241Z,16.50
2018-10-17T21:49:14.727Z,16.50
2018-10-17T21:51:43.172Z,16.50
2018-10-17T21:54:11.602Z,16.50
2018-10-17T21:56:40.136Z,16.40
2018-10-17T21:59:08.788Z,16.50
2018-10-17T22:01:37.930Z,16.40
2018-10-17T22:04:06.541Z,16.50
2018-10-17T22:06:35.083Z,16.50
2018-10-17T22:09:04.732Z,16.50
2018-10-17T22:11:33.311Z,16.40
2018-10-17T22:14:01.946Z,16.40
2018-10-17T22:16:35.894Z,16.40
2018-10-17T22:19:04.506Z,16.40
2018-10-17T22:21:32.936Z,16.40
2018-10-17T22:24:01.364Z,16.30
2018-10-17T22:26:30.000Z,16.20
2018-10-17T22:28:58.696Z,16.20
2018-10-17T22:31:27.259Z,16.20
2018-10-17T22:33:55.798Z,16.20
2018-10-17T22:36:24.261Z,16.30
2018-10-17T22:38:53.041Z,16.20
2018-10-17T22:41:21.612Z,16.20
2018-10-17T22:43:50.028Z,16.10
2018-10-17T22:46:18.654Z,16.10
2018-10-17T22:48:47.228Z,16.10
2018-10-17T22:51:15.817Z,16.10
2018-10-17T22:53:44.409Z,16.10
2018-10-17T22:56:13.074Z,16.00
2018-10-17T22:58:41.568Z,15.90
2018-10-17T23:01:10.107Z,15.90
2018-10-17T23:03:38.828Z,15.90
2018-10-17T23:06:07.428Z,15.90
2018-10-17T23:08:35.988Z,15.90
2018-10-17T23:11:05.160Z,15.90
2018-10-17T23:13:33.880Z,15.80
2018-10-17T23:16:02.643Z,15.90
2018-10-17T23:18:31.334Z,15.80
2018-10-17T23:21:00.008Z,15.80
2018-10-17T23:23:28.591Z,15.80
2018-10-17T23:25:57.510Z,15.80
2018-10-17T23:28:26.218Z,15.80
2018-10-17T23:30:54.929Z,15.80
2018-10-17T23:33:23.550Z,15.80
2018-10-17T23:35:52.147Z,15.80
2018-10-17T23:38:20.699Z,15.80
2018-10-17T23:40:49.341Z,15.70
2018-10-17T23:43:18.026Z,15.70
2018-10-17T23:45:46.638Z,15.70
2018-10-17T23:48:15.412Z,15.60
2018-10-17T23:50:43.937Z,15.60
2018-10-17T23:53:12.496Z,15.50
2018-10-17T23:55:41.220Z,15.60
2018-10-17T23:58:09.912Z,15.50
